createdAt,value
2018-03-21T00:01:16.531Z,5.83
2018-03-21T00:03:42.757Z,7.20
2018-03-21T00:06:08.855Z,5.30
2018-03-21T00:08:34.900Z,6.53
2018-03-21T00:11:01.174Z,8.00
2018-03-21T00:13:27.242Z,7.23
2018-03-21T00:15:53.476Z,6.27
2018-03-21T00:18:19.509Z,5.07
2018-03-21T00:20:45.550Z,5.33
2018-03-21T00:23:11.636Z,5.97
2018-03-21T00:25:37.652Z,8.00
2018-03-21T00:28:03.975Z,5.80
2018-03-21T00:30:30.001Z,5.90
2018-03-21T00:32:56.036Z,6.80
2018-03-21T00:35:22.324Z,7.53
2018-03-21T00:37:48.353Z,5.57
2018-03-21T00:40:14.579Z,6.60
2018-03-21T00:42:40.611Z,6.20
2018-03-21T00:45:06.647Z,7.33
2018-03-21T00:47:32.683Z,5.13
2018-03-21T00:49:58.724Z,7.50
2018-03-21T00:52:24.871Z,6.77
2018-03-21T00:54:50.919Z,7.33
2018-03-21T00:57:16.940Z,6.70
2018-03-21T00:59:43.022Z,6.07
2018-03-21T01:02:09.234Z,10.33
2018-03-21T01:04:35.300Z,4.30
2018-03-21T01:07:01.381Z,8.70
2018-03-21T01:09:27.463Z,7.90
2018-03-21T01:11:53.759Z,4.50
2018-03-21T01:14:19.818Z,5.60
2018-03-21T01:16:45.866Z,6.03
2018-03-21T01:19:11.887Z,5.77
2018-03-21T01:21:37.926Z,5.20
2018-03-21T01:24:03.983Z,4.77
2018-03-21T01:26:30.153Z,5.33
2018-03-21T01:28:56.221Z,7.73
2018-03-21T01:31:22.795Z,6.10
2018-03-21T01:33:48.836Z,5.93
2018-03-21T01:36:14.889Z,5.43
2018-03-21T01:38:41.092Z,5.77
2018-03-21T01:41:07.139Z,5.07
2018-03-21T01:43:33.348Z,7.90
2018-03-21T01:45:59.391Z,4.77
2018-03-21T01:48:25.492Z,5.37
2018-03-21T01:50:51.550Z,6.83
2018-03-21T01:53:17.579Z,5.90
2018-03-21T01:55:43.840Z,6.33
2018-03-21T01:58:09.899Z,4.80
2018-03-21T02:00:50.889Z,7.87
2018-03-21T02:03:16.920Z,11.03
2018-03-21T02:05:43.060Z,8.83
2018-03-21T02:08:09.094Z,9.40
2018-03-21T02:10:35.120Z,3.87
2018-03-21T02:13:01.207Z,5.87
2018-03-21T02:15:27.270Z,6.07
2018-03-21T02:17:53.328Z,7.63
2018-03-21T02:20:19.343Z,5.30
2018-03-21T02:22:45.396Z,7.67
2018-03-21T02:25:11.430Z,7.03
2018-03-21T02:27:37.633Z,5.60
2018-03-21T02:30:03.682Z,5.13
2018-03-21T02:32:29.768Z,6.47
2018-03-21T02:34:55.835Z,8.47
2018-03-21T02:37:21.904Z,5.03
2018-03-21T02:39:48.159Z,5.03
2018-03-21T02:42:14.202Z,5.73
2018-03-21T02:44:40.281Z,6.20
2018-03-21T02:47:06.377Z,5.23
2018-03-21T02:49:32.433Z,6.67
2018-03-21T02:51:58.657Z,7.40
2018-03-21T02:54:24.700Z,5.20
2018-03-21T02:56:50.907Z,8.40
2018-03-21T02:59:16.962Z,6.50
2018-03-21T03:01:43.035Z,6.00
2018-03-21T03:04:09.087Z,5.67
2018-03-21T03:06:35.123Z,4.43
2018-03-21T03:09:01.280Z,6.67
2018-03-21T03:11:27.384Z,7.17
2018-03-21T03:13:53.540Z,8.13
2018-03-21T03:16:19.693Z,6.27
2018-03-21T03:18:45.773Z,7.07
2018-03-21T03:21:11.962Z,6.53
2018-03-21T03:23:37.991Z,8.50
2018-03-21T03:26:04.032Z,5.97
2018-03-21T03:28:30.088Z,9.27
2018-03-21T03:30:56.140Z,7.37
2018-03-21T03:33:22.321Z,7.37
2018-03-21T03:35:48.402Z,6.00
2018-03-21T03:38:14.543Z,5.70
2018-03-21T03:40:40.574Z,8.33
2018-03-21T03:43:06.954Z,6.87
2018-03-21T03:45:32.966Z,9.37
2018-03-21T03:47:59.044Z,7.43
2018-03-21T03:50:25.238Z,10.43
2018-03-21T03:52:51.335Z,6.13
2018-03-21T03:55:17.466Z,7.87
2018-03-21T03:57:43.560Z,7.67
2018-03-21T04:00:09.563Z,7.50
2018-03-21T04:02:35.645Z,7.70
2018-03-21T04:05:01.836Z,8.57
2018-03-21T04:07:27.882Z,9.27
2018-03-21T04:12:47.036Z,9.67
2018-03-21T04:15:13.144Z,5.47
2018-03-21T04:17:39.240Z,6.07
2018-03-21T04:20:05.257Z,8.30
2018-03-21T04:22:31.644Z,8.23
2018-03-21T04:24:57.667Z,10.37
2018-03-21T04:27:23.712Z,8.80
2018-03-21T04:29:49.949Z,6.40
2018-03-21T04:32:16.002Z,8.77
2018-03-21T04:34:42.089Z,7.70
2018-03-21T04:37:08.122Z,7.70
2018-03-21T04:39:34.164Z,7.83
2018-03-21T04:42:00.384Z,6.70
2018-03-21T04:44:26.440Z,7.07
2018-03-21T04:46:52.599Z,6.87
2018-03-21T04:49:19.117Z,7.03
2018-03-21T04:51:45.150Z,9.23
2018-03-21T04:54:11.332Z,8.47
2018-03-21T04:56:37.687Z,8.70
2018-03-21T04:59:03.722Z,7.93
2018-03-21T05:01:29.823Z,5.33
2018-03-21T05:03:56.203Z,7.20
2018-03-21T05:06:22.256Z,7.83
2018-03-21T05:08:48.405Z,7.47
2018-03-21T05:11:14.476Z,7.07
2018-03-21T05:13:40.548Z,8.90
2018-03-21T05:16:06.790Z,5.13
2018-03-21T05:18:32.845Z,6.73
2018-03-21T05:20:58.888Z,6.47
2018-03-21T05:23:24.948Z,7.63
2018-03-21T05:25:51.199Z,8.37
2018-03-21T05:28:17.624Z,9.33
2018-03-21T05:30:43.742Z,5.13
2018-03-21T05:33:09.805Z,7.63
2018-03-21T05:35:35.867Z,8.37
2018-03-21T05:38:01.902Z,7.37
2018-03-21T05:40:28.322Z,7.60
2018-03-21T05:42:54.530Z,12.10
2018-03-21T05:45:20.545Z,5.43
2018-03-21T05:47:46.676Z,8.17
2018-03-21T05:50:12.805Z,6.70
2018-03-21T05:52:38.898Z,5.33
2018-03-21T05:55:04.983Z,6.53
2018-03-21T05:57:31.048Z,6.70
2018-03-21T05:59:57.508Z,7.00
2018-03-21T06:02:23.635Z,6.80
2018-03-21T06:04:49.668Z,5.83
2018-03-21T06:07:15.758Z,8.23
2018-03-21T06:09:41.835Z,9.93
2018-03-21T06:12:08.017Z,12.57
2018-03-21T06:14:34.082Z,8.17
2018-03-21T06:17:00.120Z,7.10
2018-03-21T06:19:26.167Z,8.57
2018-03-21T06:21:52.258Z,5.93
2018-03-21T06:24:18.479Z,7.33
2018-03-21T06:26:44.500Z,6.33
2018-03-21T06:29:10.599Z,4.53
2018-03-21T06:31:36.630Z,6.13
2018-03-21T06:34:02.639Z,6.27
2018-03-21T06:36:28.714Z,6.77
2018-03-21T06:38:54.737Z,8.50
2018-03-21T06:41:20.853Z,8.43
2018-03-21T06:43:46.884Z,6.60
2018-03-21T06:46:13.069Z,4.73
2018-03-21T06:48:39.134Z,7.40
2018-03-21T06:51:05.146Z,8.10
2018-03-21T06:53:31.566Z,4.93
2018-03-21T06:55:57.632Z,6.73
2018-03-21T06:58:23.688Z,5.23
2018-03-21T07:00:49.784Z,8.03
2018-03-21T07:03:15.848Z,6.43
2018-03-21T07:05:41.918Z,6.13
2018-03-21T07:08:08.012Z,6.73
2018-03-21T07:10:34.090Z,5.70
2018-03-21T07:13:00.166Z,7.27
2018-03-21T07:15:38.490Z,7.30
2018-03-21T07:18:04.923Z,6.93
2018-03-21T07:20:31.016Z,3.97
2018-03-21T07:22:57.073Z,5.87
2018-03-21T07:25:23.160Z,5.30
2018-03-21T07:27:49.274Z,6.80
2018-03-21T07:30:15.376Z,2.83
2018-03-21T07:32:41.398Z,4.50
2018-03-21T07:35:07.448Z,10.13
2018-03-21T07:37:33.535Z,9.20
2018-03-21T07:39:59.586Z,8.63
2018-03-21T07:42:25.934Z,5.80
2018-03-21T07:44:51.993Z,3.80
2018-03-21T07:47:18.043Z,4.57
2018-03-21T07:49:44.281Z,6.77
2018-03-21T07:52:10.330Z,5.63
2018-03-21T07:54:37.013Z,8.07
2018-03-21T07:57:03.085Z,8.53
2018-03-21T07:59:29.152Z,7.33
2018-03-21T08:01:55.200Z,6.57
2018-03-21T08:04:21.216Z,5.90
2018-03-21T08:06:47.262Z,5.73
2018-03-21T08:09:13.285Z,6.10
2018-03-21T08:11:39.623Z,6.30
2018-03-21T08:14:05.674Z,6.90
2018-03-21T08:16:31.707Z,8.57
2018-03-21T08:18:57.968Z,6.00
2018-03-21T08:21:24.062Z,6.43
2018-03-21T08:23:50.131Z,5.87
2018-03-21T08:26:16.405Z,3.50
2018-03-21T08:28:42.480Z,8.77
2018-03-21T08:31:08.511Z,5.13
2018-03-21T08:33:34.593Z,7.60
2018-03-21T08:36:00.686Z,5.60
2018-03-21T08:38:26.829Z,6.43
2018-03-21T08:40:52.865Z,5.17
2018-03-21T08:43:18.909Z,7.17
2018-03-21T08:45:44.970Z,7.17
2018-03-21T08:48:11.226Z,8.47
2018-03-21T08:50:37.243Z,10.40
2018-03-21T08:53:03.278Z,8.30
2018-03-21T08:55:29.500Z,9.17
2018-03-21T08:57:55.541Z,6.27
2018-03-21T09:00:21.853Z,8.13
2018-03-21T09:02:47.905Z,7.97
2018-03-21T09:05:13.975Z,5.17
2018-03-21T09:07:40.083Z,5.17
2018-03-21T09:10:06.134Z,5.67
2018-03-21T09:12:32.332Z,7.23
2018-03-21T09:14:58.492Z,5.73
2018-03-21T09:17:24.573Z,6.90
2018-03-21T09:19:50.607Z,6.23
2018-03-21T09:22:16.863Z,7.30
2018-03-21T09:24:42.915Z,7.00
2018-03-21T09:27:09.106Z,8.47
2018-03-21T09:29:35.213Z,10.67
2018-03-21T09:32:01.350Z,6.47
2018-03-21T09:34:27.567Z,7.33
2018-03-21T09:36:53.612Z,6.27
2018-03-21T09:39:19.960Z,6.93
2018-03-21T09:41:46.007Z,7.47
2018-03-21T09:44:12.130Z,7.93
2018-03-21T09:46:38.350Z,7.53
2018-03-21T09:49:04.395Z,4.77
2018-03-21T09:51:30.414Z,6.07
2018-03-21T09:53:56.504Z,7.47
2018-03-21T09:56:22.714Z,5.37
2018-03-21T09:58:48.880Z,7.53
2018-03-21T10:01:14.943Z,8.60
2018-03-21T10:03:41.000Z,5.43
2018-03-21T10:06:07.054Z,7.53
2018-03-21T10:08:33.168Z,7.53
2018-03-21T10:10:59.196Z,7.17
2018-03-21T10:13:25.363Z,8.27
2018-03-21T10:15:51.493Z,11.57
2018-03-21T10:18:17.546Z,7.73
2018-03-21T10:20:43.565Z,9.23
2018-03-21T10:23:09.756Z,6.30
2018-03-21T10:25:36.016Z,7.73
2018-03-21T10:28:02.184Z,6.40
2018-03-21T10:30:28.222Z,10.43
2018-03-21T10:32:54.309Z,10.23
2018-03-21T10:35:20.530Z,7.10
2018-03-21T10:37:46.627Z,10.47
2018-03-21T10:40:12.973Z,7.23
2018-03-21T10:42:39.044Z,6.50
2018-03-21T10:45:05.288Z,6.30
2018-03-21T10:47:31.353Z,6.50
2018-03-21T10:49:57.546Z,6.33
2018-03-21T10:52:23.616Z,10.37
2018-03-21T10:54:50.532Z,8.40
2018-03-21T10:57:16.604Z,5.60
2018-03-21T10:59:42.657Z,9.50
2018-03-21T11:02:13.717Z,6.57
2018-03-21T11:04:39.761Z,6.07
2018-03-21T11:07:05.941Z,6.10
2018-03-21T11:09:32.007Z,6.57
2018-03-21T11:11:58.108Z,10.43
2018-03-21T11:14:24.812Z,12.33
2018-03-21T11:16:51.562Z,6.80
2018-03-21T11:19:17.703Z,10.80
2018-03-21T11:21:43.747Z,5.70
2018-03-21T11:24:09.895Z,6.80
2018-03-21T11:26:35.961Z,8.63
2018-03-21T11:29:02.023Z,5.03
2018-03-21T11:31:28.046Z,6.73
2018-03-21T11:33:54.235Z,6.33
2018-03-21T11:36:20.351Z,7.57
2018-03-21T11:38:46.396Z,4.17
2018-03-21T11:41:12.452Z,6.67
2018-03-21T11:43:38.519Z,4.27
2018-03-21T11:46:19.442Z,4.90
2018-03-21T11:48:45.492Z,6.17
2018-03-21T11:51:11.633Z,4.37
2018-03-21T11:53:37.665Z,6.00
2018-03-21T11:56:03.831Z,7.37
2018-03-21T11:58:29.863Z,4.93
2018-03-21T12:00:55.928Z,4.57
2018-03-21T12:03:21.953Z,5.27
2018-03-21T12:05:48.246Z,6.37
2018-03-21T12:08:14.441Z,5.67
2018-03-21T12:10:40.544Z,5.17
2018-03-21T12:13:06.637Z,4.10
2018-03-21T12:15:32.841Z,3.80
2018-03-21T12:17:58.903Z,6.10
2018-03-21T12:20:24.936Z,2.90
2018-03-21T12:22:50.993Z,5.43
2018-03-21T12:25:17.015Z,4.60
2018-03-21T12:27:43.076Z,5.77
2018-03-21T12:30:09.082Z,13.33
2018-03-21T12:32:35.327Z,4.30
2018-03-21T12:35:01.395Z,4.80
2018-03-21T12:37:27.484Z,4.27
2018-03-21T12:39:53.659Z,4.17
2018-03-21T12:42:19.699Z,5.67
2018-03-21T12:44:46.665Z,4.40
2018-03-21T12:47:12.688Z,3.80
2018-03-21T12:49:38.868Z,4.53
2018-03-21T12:52:04.940Z,3.77
2018-03-21T12:54:31.144Z,7.77
2018-03-21T12:56:57.388Z,4.83
2018-03-21T12:59:23.450Z,5.17
2018-03-21T13:01:49.528Z,4.33
2018-03-21T13:04:15.639Z,4.90
2018-03-21T13:06:41.669Z,5.70
2018-03-21T13:09:07.842Z,5.53
2018-03-21T13:11:33.970Z,4.93
2018-03-21T13:14:00.010Z,2.77
2018-03-21T13:16:26.193Z,5.93
2018-03-21T13:18:52.227Z,3.70
2018-03-21T13:21:18.314Z,4.37
2018-03-21T13:23:44.644Z,4.17
2018-03-21T13:26:11.057Z,8.23
2018-03-21T13:28:37.116Z,3.00
2018-03-21T13:31:03.196Z,6.90
2018-03-21T13:33:29.259Z,5.50
2018-03-21T13:35:55.311Z,4.13
2018-03-21T13:38:21.399Z,3.90
2018-03-21T13:40:47.438Z,3.20
2018-03-21T13:43:13.498Z,5.43
2018-03-21T13:45:39.571Z,3.10
2018-03-21T13:48:05.589Z,3.17
2018-03-21T13:50:31.694Z,4.67
2018-03-21T13:52:57.790Z,2.87
2018-03-21T13:55:23.857Z,3.63
2018-03-21T13:57:50.131Z,4.80
2018-03-21T14:00:16.141Z,3.13
2018-03-21T14:02:42.221Z,3.67
2018-03-21T14:05:08.268Z,3.00
2018-03-21T14:07:34.344Z,2.60
2018-03-21T14:10:00.591Z,4.00
2018-03-21T14:12:26.678Z,2.90
2018-03-21T14:14:52.801Z,3.27
2018-03-21T14:17:18.852Z,2.73
2018-03-21T14:19:44.909Z,2.47
2018-03-21T14:22:10.985Z,3.40
2018-03-21T14:24:37.102Z,3.50
2018-03-21T14:27:03.121Z,3.57
2018-03-21T14:29:29.401Z,3.40
2018-03-21T14:31:55.482Z,4.83
2018-03-21T14:34:21.612Z,5.27
2018-03-21T14:36:48.025Z,3.70
2018-03-21T14:39:14.068Z,4.90
2018-03-21T14:41:40.145Z,4.33
2018-03-21T14:44:06.186Z,3.27
2018-03-21T14:46:32.246Z,8.00
2018-03-21T14:48:58.305Z,6.40
2018-03-21T14:51:24.330Z,3.90
2018-03-21T14:53:50.422Z,4.33
2018-03-21T14:56:16.469Z,13.60
2018-03-21T14:58:42.660Z,6.90
2018-03-21T15:01:08.720Z,5.53
2018-03-21T15:03:34.795Z,4.83
2018-03-21T15:06:00.965Z,6.20
2018-03-21T15:08:27.042Z,8.43
2018-03-21T15:10:53.231Z,4.77
2018-03-21T15:13:19.383Z,5.53
2018-03-21T15:15:45.458Z,5.40
2018-03-21T15:18:11.628Z,5.40
2018-03-21T15:20:53.016Z,5.97
2018-03-21T15:26:12.400Z,6.33
2018-03-21T15:28:38.452Z,7.33
2018-03-21T15:31:05.004Z,6.83
2018-03-21T15:33:31.076Z,7.90
2018-03-21T15:35:57.097Z,12.03
2018-03-21T15:38:23.167Z,7.70
2018-03-21T15:40:49.260Z,8.73
2018-03-21T15:43:15.684Z,5.93
2018-03-21T15:45:41.735Z,6.57
2018-03-21T15:48:07.805Z,5.67
2018-03-21T15:50:33.854Z,7.50
2018-03-21T15:52:59.935Z,9.13
2018-03-21T15:55:26.052Z,5.63
2018-03-21T15:57:52.104Z,5.60
2018-03-21T16:00:18.200Z,6.30
2018-03-21T16:02:44.319Z,6.33
2018-03-21T16:05:10.366Z,7.27
2018-03-21T16:07:36.459Z,7.07
2018-03-21T16:10:02.677Z,5.20
2018-03-21T16:12:28.785Z,7.33
2018-03-21T16:14:55.015Z,6.00
2018-03-21T16:17:21.072Z,7.10
2018-03-21T16:19:47.132Z,7.97
2018-03-21T16:22:13.302Z,7.90
2018-03-21T16:24:39.368Z,7.77
2018-03-21T16:27:05.407Z,7.27
2018-03-21T16:29:31.466Z,9.23
2018-03-21T16:31:57.660Z,7.90
2018-03-21T16:34:23.730Z,8.93
2018-03-21T16:36:49.889Z,11.90
2018-03-21T16:39:15.911Z,10.03
2018-03-21T16:41:42.349Z,6.53
2018-03-21T16:44:08.439Z,11.00
2018-03-21T16:46:34.494Z,6.70
2018-03-21T16:49:00.565Z,7.23
2018-03-21T16:51:26.614Z,8.80
2018-03-21T16:53:52.655Z,8.87
2018-03-21T16:56:18.668Z,8.07
2018-03-21T16:58:44.743Z,9.07
2018-03-21T17:01:10.822Z,8.77
2018-03-21T17:03:36.931Z,13.13
2018-03-21T17:06:17.915Z,9.90
2018-03-21T17:08:44.038Z,8.73
2018-03-21T17:11:10.098Z,9.03
2018-03-21T17:13:37.118Z,9.07
2018-03-21T17:16:03.171Z,9.57
2018-03-21T17:18:29.218Z,8.63
2018-03-21T17:20:55.453Z,9.23
2018-03-21T17:23:21.545Z,9.27
2018-03-21T17:25:48.044Z,12.60
2018-03-21T17:28:14.107Z,10.80
2018-03-21T17:30:40.328Z,11.97
2018-03-21T17:33:06.434Z,10.50
2018-03-21T17:35:32.950Z,10.60
2018-03-21T17:37:59.031Z,9.87
2018-03-21T17:40:25.109Z,12.60
2018-03-21T17:42:51.228Z,8.63
2018-03-21T17:45:17.495Z,9.07
2018-03-21T17:47:43.561Z,9.37
2018-03-21T17:50:09.661Z,9.00
2018-03-21T17:52:35.739Z,8.10
2018-03-21T17:55:01.890Z,6.33
2018-03-21T17:57:28.037Z,10.73
2018-03-21T17:59:54.095Z,8.77
2018-03-21T18:02:20.132Z,11.97
2018-03-21T18:04:46.251Z,9.27
2018-03-21T18:07:12.315Z,11.50
2018-03-21T18:09:38.914Z,8.67
2018-03-21T18:12:05.324Z,13.20
2018-03-21T18:14:31.425Z,10.73
2018-03-21T18:16:57.638Z,10.63
2018-03-21T18:19:23.724Z,12.77
2018-03-21T18:21:50.850Z,10.13
2018-03-21T18:24:16.910Z,11.43
2018-03-21T18:26:43.003Z,8.30
2018-03-21T18:29:09.041Z,9.57
2018-03-21T18:31:35.354Z,11.23
2018-03-21T18:34:01.449Z,10.10
2018-03-21T18:36:27.570Z,11.43
2018-03-21T18:38:54.551Z,10.83
2018-03-21T18:41:20.645Z,8.57
2018-03-21T18:43:47.720Z,11.63
2018-03-21T18:46:13.859Z,9.53
2018-03-21T18:48:39.999Z,10.57
2018-03-21T18:51:06.285Z,9.90
2018-03-21T18:53:32.425Z,13.00
2018-03-21T18:55:58.571Z,10.30
2018-03-21T18:58:24.701Z,11.97
2018-03-21T19:00:50.839Z,12.07
2018-03-21T19:03:16.904Z,9.53
2018-03-21T19:05:42.961Z,15.60
2018-03-21T19:08:09.188Z,12.57
2018-03-21T19:10:35.353Z,11.90
2018-03-21T19:13:01.588Z,14.53
2018-03-21T19:15:28.683Z,10.70
2018-03-21T19:17:54.847Z,11.13
2018-03-21T19:20:21.046Z,8.23
2018-03-21T19:22:47.180Z,11.37
2018-03-21T19:25:13.497Z,11.43
2018-03-21T19:27:39.622Z,10.23
2018-03-21T19:30:05.791Z,14.03
2018-03-21T19:32:31.882Z,12.03
2018-03-21T19:34:58.073Z,9.70
2018-03-21T19:37:24.148Z,9.70
2018-03-21T19:39:50.463Z,10.57
2018-03-21T19:42:16.626Z,12.47
2018-03-21T19:44:42.724Z,13.40
2018-03-21T19:47:08.814Z,11.37
2018-03-21T19:49:34.910Z,13.67
2018-03-21T19:52:01.032Z,11.03
2018-03-21T19:54:27.161Z,14.57
2018-03-21T19:56:53.284Z,12.10
2018-03-21T19:59:20.410Z,12.23
2018-03-21T20:01:46.658Z,14.53
2018-03-21T20:04:12.955Z,11.10
2018-03-21T20:06:39.279Z,12.70
2018-03-21T20:09:05.419Z,12.40
2018-03-21T20:11:31.465Z,9.53
2018-03-21T20:13:57.543Z,12.57
2018-03-21T20:16:23.618Z,11.23
2018-03-21T20:18:49.648Z,14.20
2018-03-21T20:21:16.157Z,11.67
2018-03-21T20:23:42.251Z,14.27
2018-03-21T20:26:08.566Z,16.17
2018-03-21T20:28:34.623Z,13.00
2018-03-21T20:31:00.926Z,12.03
2018-03-21T20:33:28.332Z,12.77
2018-03-21T20:35:54.472Z,16.33
2018-03-21T20:38:20.626Z,17.07
2018-03-21T20:40:46.721Z,15.27
2018-03-21T20:43:13.762Z,12.07
2018-03-21T20:45:40.899Z,12.00
2018-03-21T20:48:07.017Z,15.80
2018-03-21T20:50:33.157Z,12.70
2018-03-21T20:52:59.207Z,15.53
2018-03-21T20:55:25.426Z,12.73
2018-03-21T20:57:51.494Z,14.37
2018-03-21T21:00:17.770Z,11.20
2018-03-21T21:02:44.794Z,17.73
2018-03-21T21:05:10.846Z,11.17
2018-03-21T21:07:36.973Z,11.17
2018-03-21T21:10:03.092Z,16.27
2018-03-21T21:12:29.407Z,12.47
2018-03-21T21:14:56.460Z,9.70
2018-03-21T21:17:22.594Z,11.20
2018-03-21T21:19:48.702Z,13.33
2018-03-21T21:22:14.915Z,14.00
2018-03-21T21:24:41.030Z,16.47
2018-03-21T21:27:07.109Z,12.07
2018-03-21T21:29:33.225Z,14.33
2018-03-21T21:31:59.285Z,16.43
2018-03-21T21:34:25.399Z,12.57
2018-03-21T21:36:51.719Z,12.67
2018-03-21T21:39:17.863Z,14.43
2018-03-21T21:41:44.362Z,9.47
2018-03-21T21:44:10.466Z,15.70
2018-03-21T21:46:36.547Z,9.77
2018-03-21T21:49:02.602Z,13.90
2018-03-21T21:51:28.645Z,10.90
2018-03-21T21:53:54.736Z,13.63
2018-03-21T21:56:20.812Z,10.30
2018-03-21T21:58:47.043Z,12.17
2018-03-21T22:01:13.889Z,9.90
2018-03-21T22:03:39.934Z,14.70
2018-03-21T22:06:06.105Z,13.70
2018-03-21T22:08:32.214Z,11.00
2018-03-21T22:10:58.332Z,11.70
2018-03-21T22:13:24.410Z,10.77
2018-03-21T22:15:51.128Z,17.37
2018-03-21T22:18:17.236Z,11.40
2018-03-21T22:20:43.331Z,12.00
2018-03-21T22:23:09.442Z,12.60
2018-03-21T22:25:35.528Z,13.10
2018-03-21T22:28:01.924Z,13.97
2018-03-21T22:30:28.012Z,14.40
2018-03-21T22:32:54.116Z,11.50
2018-03-21T22:35:20.386Z,13.77
2018-03-21T22:37:46.431Z,12.97
2018-03-21T22:40:12.772Z,15.60
2018-03-21T22:42:38.823Z,15.17
2018-03-21T22:45:04.974Z,13.47
2018-03-21T22:47:31.114Z,13.20
2018-03-21T22:49:57.166Z,17.30
2018-03-21T22:52:23.490Z,15.40
2018-03-21T22:54:49.824Z,17.33
2018-03-21T22:57:15.916Z,15.07
2018-03-21T22:59:42.058Z,19.37
2018-03-21T23:02:08.152Z,13.00
2018-03-21T23:04:34.230Z,16.20
2018-03-21T23:07:00.333Z,14.93
2018-03-21T23:09:26.438Z,17.23
2018-03-21T23:11:52.632Z,18.83
2018-03-21T23:14:18.683Z,18.97
2018-03-21T23:16:44.773Z,18.27
2018-03-21T23:19:10.925Z,18.57
2018-03-21T23:21:36.972Z,21.83
2018-03-21T23:24:03.076Z,18.17
2018-03-21T23:26:29.158Z,19.27
2018-03-21T23:28:55.217Z,18.63
2018-03-21T23:31:21.286Z,17.70
2018-03-21T23:33:47.373Z,15.00
2018-03-21T23:36:13.480Z,19.20
2018-03-21T23:38:39.639Z,20.20
2018-03-21T23:41:05.711Z,21.17
2018-03-21T23:43:31.968Z,19.77
2018-03-21T23:45:58.073Z,17.97
2018-03-21T23:48:24.102Z,22.57
2018-03-21T23:50:50.179Z,25.10
2018-03-21T23:53:16.195Z,22.80
2018-03-21T23:55:42.350Z,20.10
2018-03-21T23:58:08.376Z,19.43
